Estación Meteorológica Peña el Pijo (Robertgarden) [ 07/19/18 09:31:07 CEST ]

Fecha Hora Presion(HPa) Temp (°C) Humedad % Rocio (°C) Viento ( m/s) Direccion Lluvia 1Hora(mm) Lluvia 24H(mm) LLuvia Total(mm)
2017-Dec-28 01:01:43 1003.500 5.2 73 0.7       6.73 27.97
2017-Dec-28 02:02:15 1003.000 4.9 76 1.0       6.73 27.97
2017-Dec-28 03:02:16 1002.200 4.6 80 1.4       6.73 27.97
2017-Dec-28 04:03:59 1002.100 4.7 81 1.7       6.21 27.97
2017-Dec-28 05:03:09 1001.900 5.0 82 2.1       5.18 27.97
2017-Dec-28 06:01:41 1001.600 5.8 84 3.3       5.18 27.97
2017-Dec-28 07:01:36 1001.800 6.4 84 3.9       4.14 27.97
2017-Dec-28 08:01:53 1001.700 7.4 85 5.0       2.59 27.97
2017-Dec-28 09:01:44 1002.200 7.8 85 5.5       1.55 27.97
2017-Dec-28 10:01:33 1002.600 9.2 84 31.6       1.03 27.97
2017-Dec-28 11:01:33 1002.900 10.3 82 7.3 1.1 WNW     27.97
2017-Dec-28 12:01:30 1003.200 11.1 79 7.6 1.2 NW     27.97
2017-Dec-28 13:01:51 1002.600 11.2 79 7.7         27.97
2017-Dec-28 14:01:41 1002.700 11.9 76 7.8 3.3 N     27.97
2017-Dec-28 15:01:38 1002.600 11.8 76 7.7 1.8 NW     27.97
2017-Dec-28 16:01:48 1002.800 11.9 74 7.4 4.3 N     27.97
2017-Dec-28 17:01:49 1002.700 11.8 74 7.3 1.5 N     27.97
2017-Dec-28 18:01:47 1003.100 11.5 76 7.4 2.9 NW     27.97
2017-Dec-28 19:01:40 1003.600 11.0 78 7.3         27.97
2017-Dec-28 20:01:43 1004.400 11.2 78 7.5         27.97
2017-Dec-28 21:01:39 1004.800 11.1 78 7.4         27.97
2017-Dec-28 22:01:43 1005.100 11.1 77 7.2         27.97
2017-Dec-28 23:01:38 1005.900 10.9 77 7.0         27.97

Temperatura Máxima:11°    Temperatura Mínima:
Presión Máxima:1005.900 Hpa    Presión Mínima:1001.600 Hpa


Volver